createdAt,value
2018-11-05T00:00:20.778Z,101492.92
2018-11-05T00:02:50.705Z,101494.36
2018-11-05T00:05:19.187Z,101493.55
2018-11-05T00:07:47.587Z,101497.11
2018-11-05T00:10:15.939Z,101490.03
2018-11-05T00:12:44.340Z,101490.15
2018-11-05T00:15:12.715Z,101489.77
2018-11-05T00:17:41.090Z,101486.83
2018-11-05T00:20:10.423Z,101477.92
2018-11-05T00:22:38.782Z,101481.87
2018-11-05T00:25:08.417Z,101481.17
2018-11-05T00:27:36.746Z,101476.17
2018-11-05T00:30:05.493Z,101477.41
2018-11-05T00:32:33.895Z,101474.97
2018-11-05T00:35:02.267Z,101471.27
2018-11-05T00:37:30.638Z,101476.41
2018-11-05T00:39:58.988Z,101473.84
2018-11-05T00:42:27.343Z,101463.63
2018-11-05T00:44:55.669Z,101468.70
2018-11-05T00:47:24.035Z,101462.69
2018-11-05T00:49:52.345Z,101459.23
2018-11-05T00:52:20.706Z,101464.13
2018-11-05T00:54:48.991Z,101464.00
2018-11-05T00:57:17.343Z,101459.23
2018-11-05T00:59:45.715Z,101457.11
2018-11-05T01:02:15.733Z,101457.61
2018-11-05T01:04:44.076Z,101452.66
2018-11-05T01:07:12.418Z,101450.95
2018-11-05T01:09:40.747Z,101451.58
2018-11-05T01:12:09.063Z,101446.70
2018-11-05T01:14:37.403Z,101447.70
2018-11-05T01:17:06.112Z,101452.97
2018-11-05T01:19:34.439Z,101450.33
2018-11-05T01:22:02.797Z,101455.03
2018-11-05T01:24:31.109Z,101457.16
2018-11-05T01:26:59.500Z,101450.77
2018-11-05T01:29:27.870Z,101453.83
2018-11-05T01:31:56.177Z,101449.76
2018-11-05T01:34:24.449Z,101447.25
2018-11-05T01:36:52.779Z,101441.67
2018-11-05T01:39:21.086Z,101437.09
2018-11-05T01:41:49.377Z,101427.25
2018-11-05T01:44:17.734Z,101428.88
2018-11-05T01:46:46.078Z,101426.05
2018-11-05T01:49:14.383Z,101424.23
2018-11-05T01:51:42.732Z,101419.59
2018-11-05T01:54:11.043Z,101417.92
2018-11-05T01:56:39.362Z,101419.59
2018-11-05T01:59:07.724Z,101414.32
2018-11-05T02:01:36.030Z,101422.69
2018-11-05T02:04:04.346Z,101419.47
2018-11-05T02:06:32.681Z,101414.02
2018-11-05T02:09:00.992Z,101413.27
2018-11-05T02:11:29.285Z,101401.92
2018-11-05T02:13:57.599Z,101403.74
2018-11-05T02:16:25.934Z,101406.56
2018-11-05T02:18:54.219Z,101401.92
2018-11-05T02:21:22.601Z,101396.77
2018-11-05T02:23:51.030Z,101397.08
2018-11-05T02:26:19.351Z,101396.08
2018-11-05T02:28:47.679Z,101391.50
2018-11-05T02:31:16.010Z,101401.23
2018-11-05T02:33:44.415Z,101399.02
2018-11-05T02:36:12.748Z,101398.78
2018-11-05T02:38:41.087Z,101394.21
2018-11-05T02:41:09.410Z,101396.54
2018-11-05T02:43:37.742Z,101399.64
2018-11-05T02:46:06.094Z,101395.22
2018-11-05T02:48:34.434Z,101386.81
2018-11-05T02:51:02.775Z,101380.23
2018-11-05T02:53:31.062Z,101383.84
2018-11-05T02:55:59.391Z,101380.54
2018-11-05T02:58:28.425Z,101381.35
2018-11-05T03:00:57.524Z,101378.91
2018-11-05T03:03:25.927Z,101381.66
2018-11-05T03:05:54.251Z,101383.80
2018-11-05T03:08:22.575Z,101374.62
2018-11-05T03:10:51.004Z,101375.27
2018-11-05T03:13:19.352Z,101373.95
2018-11-05T03:15:47.651Z,101376.00
2018-11-05T03:18:16.016Z,101363.53
2018-11-05T03:20:44.397Z,101362.72
2018-11-05T03:23:12.777Z,101359.97
2018-11-05T03:25:41.171Z,101355.33
2018-11-05T03:28:09.574Z,101349.44
2018-11-05T03:30:37.882Z,101342.85
2018-11-05T03:33:06.205Z,101346.61
2018-11-05T03:35:34.526Z,101351.42
2018-11-05T03:38:02.888Z,101350.10
2018-11-05T03:40:31.211Z,101343.71
2018-11-05T03:42:59.551Z,101344.67
2018-11-05T03:45:27.865Z,101347.47
2018-11-05T03:47:56.224Z,101343.97
2018-11-05T03:50:24.552Z,101349.44
2018-11-05T03:52:52.867Z,101354.56
2018-11-05T03:55:21.234Z,101361.28
2018-11-05T03:57:49.573Z,101357.50
2018-11-05T04:00:18.607Z,101342.85
2018-11-05T04:02:46.906Z,101346.49
2018-11-05T04:05:15.312Z,101341.53
2018-11-05T04:07:43.607Z,101341.23
2018-11-05T04:10:12.958Z,101340.07
2018-11-05T04:12:41.309Z,101337.94
2018-11-05T04:15:10.064Z,101336.77
2018-11-05T04:17:38.407Z,101330.61
2018-11-05T04:20:08.996Z,101324.72
2018-11-05T04:22:37.391Z,101324.72
2018-11-05T04:25:05.825Z,101332.82
2018-11-05T04:27:34.204Z,101331.31
2018-11-05T04:30:02.626Z,101333.62
2018-11-05T04:32:30.917Z,101333.33
2018-11-05T04:34:59.256Z,101331.50
2018-11-05T04:37:27.621Z,101329.98
2018-11-05T04:39:55.954Z,101323.02
2018-11-05T04:42:24.276Z,101326.66
2018-11-05T04:44:52.587Z,101327.47
2018-11-05T04:47:20.916Z,101322.40
2018-11-05T04:49:49.238Z,101328.20
2018-11-05T04:52:17.569Z,101323.44
2018-11-05T04:54:45.869Z,101319.38
2018-11-05T04:57:14.191Z,101310.97
2018-11-05T04:59:42.476Z,101312.39
2018-11-05T05:02:10.777Z,101310.16
2018-11-05T05:04:39.121Z,101308.84
2018-11-05T05:07:07.708Z,101304.77
2018-11-05T05:09:36.017Z,101309.64
2018-11-05T05:12:04.382Z,101311.47
2018-11-05T05:14:32.745Z,101307.91
2018-11-05T05:17:01.082Z,101300.52
2018-11-05T05:19:29.434Z,101308.92
2018-11-05T05:21:57.746Z,101310.23
2018-11-05T05:24:26.089Z,101302.33
2018-11-05T05:26:54.419Z,101300.94
2018-11-05T05:29:22.736Z,101295.05
2018-11-05T05:31:51.117Z,101297.91
2018-11-05T05:34:19.464Z,101298.30
2018-11-05T05:36:47.790Z,101300.73
2018-11-05T05:39:16.064Z,101302.17
2018-11-05T05:41:44.502Z,101309.06
2018-11-05T05:44:12.855Z,101291.83
2018-11-05T05:46:41.188Z,101292.64
2018-11-05T05:49:09.534Z,101296.90
2018-11-05T05:51:37.954Z,101294.97
2018-11-05T05:54:06.572Z,101303.17
2018-11-05T05:56:34.942Z,101301.36
2018-11-05T05:59:03.256Z,101301.36
2018-11-05T06:01:31.618Z,101293.45
2018-11-05T06:04:00.013Z,101292.86
2018-11-05T06:06:28.395Z,101289.05
2018-11-05T06:08:56.628Z,101292.02
2018-11-05T06:11:24.978Z,101291.83
2018-11-05T06:13:53.320Z,101294.47
2018-11-05T06:16:21.812Z,101295.78
2018-11-05T06:18:50.181Z,101294.97
2018-11-05T06:21:18.518Z,101291.13
2018-11-05T06:23:46.801Z,101296.81
2018-11-05T06:26:15.164Z,101293.06
2018-11-05T06:28:43.560Z,101296.70
2018-11-05T06:31:11.824Z,101298.83
2018-11-05T06:33:40.157Z,101292.25
2018-11-05T06:36:08.561Z,101292.86
2018-11-05T06:38:36.892Z,101295.11
2018-11-05T06:41:05.905Z,101304.74
2018-11-05T06:43:34.211Z,101301.19
2018-11-05T06:46:02.514Z,101306.81
2018-11-05T06:48:30.918Z,101312.14
2018-11-05T06:50:59.260Z,101318.23
2018-11-05T06:53:27.638Z,101318.53
2018-11-05T06:55:56.046Z,101321.81
2018-11-05T06:58:24.376Z,101307.13
2018-11-05T07:00:52.708Z,101312.81
2018-11-05T07:03:21.044Z,101308.97
2018-11-05T07:05:49.513Z,101311.41
2018-11-05T07:08:17.731Z,101310.80
2018-11-05T07:10:46.129Z,101304.20
2018-11-05T07:13:14.492Z,101306.14
2018-11-05T07:15:42.835Z,101309.47
2018-11-05T07:18:11.307Z,101308.06
2018-11-05T07:20:39.618Z,101307.47
2018-11-05T07:23:07.923Z,101310.92
2018-11-05T07:25:36.283Z,101307.22
2018-11-05T07:28:04.732Z,101311.58
2018-11-05T07:30:33.084Z,101301.55
2018-11-05T07:33:01.435Z,101300.23
2018-11-05T07:35:29.767Z,101304.07
2018-11-05T07:37:58.104Z,101299.61
2018-11-05T07:40:26.465Z,101300.53
2018-11-05T07:42:54.860Z,101296.77
2018-11-05T07:45:24.157Z,101298.20
2018-11-05T07:47:52.579Z,101295.77
2018-11-05T07:50:21.995Z,101300.02
2018-11-05T07:52:50.783Z,101286.95
2018-11-05T07:55:19.693Z,101290.59
2018-11-05T07:57:49.082Z,101284.42
2018-11-05T08:00:23.033Z,101284.81
2018-11-05T08:02:53.074Z,101280.25
2018-11-05T08:05:22.124Z,101283.39
2018-11-05T08:07:50.822Z,101293.34
2018-11-05T08:10:19.212Z,101287.76
2018-11-05T08:12:47.559Z,101293.14
2018-11-05T08:15:17.336Z,101288.06
2018-11-05T08:17:46.764Z,101297.20
2018-11-05T08:20:15.187Z,101289.64
2018-11-05T08:22:43.654Z,101289.23
2018-11-05T08:25:12.827Z,101295.52
2018-11-05T08:27:41.227Z,101299.17
2018-11-05T08:30:13.111Z,101297.25
2018-11-05T08:32:41.438Z,101296.04
2018-11-05T08:35:10.811Z,101296.95
2018-11-05T08:37:39.354Z,101286.91
2018-11-05T08:40:10.479Z,101283.59
2018-11-05T08:42:39.098Z,101275.86
2018-11-05T08:45:07.737Z,101286.73
2018-11-05T08:47:36.069Z,101276.66
2018-11-05T08:50:04.576Z,101272.53
2018-11-05T08:52:32.868Z,101274.77
2018-11-05T08:55:01.217Z,101271.83
2018-11-05T08:57:29.622Z,101263.20
2018-11-05T08:59:58.025Z,101267.97
2018-11-05T09:02:26.313Z,101256.11
2018-11-05T09:04:54.706Z,101251.13
2018-11-05T09:07:23.071Z,101249.91
2018-11-05T09:09:51.505Z,101248.39
2018-11-05T09:12:19.782Z,101254.17
2018-11-05T09:14:48.136Z,101253.77
2018-11-05T09:17:16.538Z,101251.94
2018-11-05T09:19:44.893Z,101250.12
2018-11-05T09:22:13.278Z,101244.63
2018-11-05T09:24:41.592Z,101244.63
2018-11-05T09:27:09.973Z,101251.03
2018-11-05T09:29:38.346Z,101247.71
2018-11-05T09:32:06.706Z,101241.42
2018-11-05T09:34:35.068Z,101237.56
2018-11-05T09:37:03.443Z,101236.75
2018-11-05T09:39:31.898Z,101242.12
2018-11-05T09:42:00.262Z,101239.99
2018-11-05T09:44:28.852Z,101247.50
2018-11-05T09:46:57.267Z,101243.55
2018-11-05T09:49:25.708Z,101245.16
2018-11-05T09:51:54.066Z,101243.73
2018-11-05T09:54:22.491Z,101244.55
2018-11-05T09:56:50.857Z,101238.98
2018-11-05T09:59:19.206Z,101240.69
2018-11-05T10:01:47.653Z,101242.65
2018-11-05T10:04:16.163Z,101239.80
2018-11-05T10:06:44.452Z,101231.58
2018-11-05T10:09:13.242Z,101236.55
2018-11-05T10:11:41.645Z,101234.63
2018-11-05T10:14:10.153Z,101224.67
2018-11-05T10:16:38.961Z,101225.98
2018-11-05T10:19:07.666Z,101228.12
2018-11-05T10:21:36.093Z,101228.82
2018-11-05T10:24:04.435Z,101226.48
2018-11-05T10:26:32.945Z,101222.92
2018-11-05T10:29:01.368Z,101231.35
2018-11-05T10:31:29.761Z,101222.31
2018-11-05T10:33:58.140Z,101219.67
2018-11-05T10:36:26.518Z,101229.05
2018-11-05T10:38:54.937Z,101227.41
2018-11-05T10:41:23.304Z,101228.61
2018-11-05T10:43:51.645Z,101227.91
2018-11-05T10:46:20.735Z,101227.29
2018-11-05T10:48:49.124Z,101224.46
2018-11-05T10:51:17.622Z,101231.46
2018-11-05T10:53:45.936Z,101214.71
2018-11-05T10:56:14.286Z,101215.22
2018-11-05T10:58:42.609Z,101214.41
2018-11-05T11:01:12.907Z,101218.97
2018-11-05T11:03:41.517Z,101219.48
2018-11-05T11:06:10.779Z,101214.51
2018-11-05T11:08:39.134Z,101207.39
2018-11-05T11:11:07.468Z,101199.78
2018-11-05T11:13:35.865Z,101199.66
2018-11-05T11:16:04.173Z,101192.45
2018-11-05T11:18:32.518Z,101186.67
2018-11-05T11:21:01.006Z,101187.89
2018-11-05T11:23:29.387Z,101191.05
2018-11-05T11:25:57.743Z,101183.40
2018-11-05T11:28:26.139Z,101173.26
2018-11-05T11:30:54.436Z,101172.54
2018-11-05T11:33:22.820Z,101179.36
2018-11-05T11:35:51.210Z,101171.22
2018-11-05T11:38:19.533Z,101173.86
2018-11-05T11:40:47.892Z,101173.05
2018-11-05T11:43:16.247Z,101175.39
2018-11-05T11:45:44.630Z,101168.58
2018-11-05T11:48:13.071Z,101169.30
2018-11-05T11:50:41.488Z,101171.94
2018-11-05T11:53:09.933Z,101167.16
2018-11-05T11:55:38.284Z,101155.80
2018-11-05T11:58:06.658Z,101164.43
2018-11-05T12:00:35.071Z,101155.98
2018-11-05T12:03:03.408Z,101158.02
2018-11-05T12:05:31.808Z,101150.52
2018-11-05T12:08:00.208Z,101145.72
2018-11-05T12:10:28.574Z,101139.83
2018-11-05T12:12:56.906Z,101138.63
2018-11-05T12:15:25.297Z,101135.27
2018-11-05T12:17:54.084Z,101122.79
2018-11-05T12:20:23.809Z,101110.40
2018-11-05T12:22:55.660Z,101101.97
2018-11-05T12:25:23.999Z,101093.74
2018-11-05T12:27:52.354Z,101101.45
2018-11-05T12:30:22.842Z,101096.86
2018-11-05T12:32:52.467Z,101092.00
2018-11-05T12:35:20.779Z,101088.55
2018-11-05T12:37:50.248Z,101083.87
2018-11-05T12:40:19.547Z,101086.72
2018-11-05T12:42:48.853Z,101082.33
2018-11-05T12:45:17.286Z,101076.45
2018-11-05T12:47:45.696Z,101072.49
2018-11-05T12:50:17.501Z,101073.30
2018-11-05T12:52:46.641Z,101071.38
2018-11-05T12:55:14.957Z,101069.05
2018-11-05T12:57:43.328Z,101063.25
2018-11-05T13:00:15.764Z,101068.49
2018-11-05T13:02:44.133Z,101056.81
2018-11-05T13:05:13.553Z,101064.14
2018-11-05T13:07:42.200Z,101051.14
2018-11-05T13:10:16.741Z,101050.52
2018-11-05T13:12:45.121Z,101060.27
2018-11-05T13:15:13.511Z,101069.22
2018-11-05T13:17:42.190Z,101072.36
2018-11-05T13:20:17.910Z,101076.63
2018-11-05T13:22:46.492Z,101073.27
2018-11-05T13:25:15.096Z,101076.41
2018-11-05T13:27:45.343Z,101077.34
2018-11-05T13:30:14.510Z,101072.78
2018-11-05T13:32:43.380Z,101077.23
2018-11-05T13:35:13.894Z,101082.20
2018-11-05T13:37:42.934Z,101074.91
2018-11-05T13:40:15.297Z,101070.61
2018-11-05T13:42:44.059Z,101072.27
2018-11-05T13:45:13.526Z,101071.34
2018-11-05T13:47:42.643Z,101073.38
2018-11-05T13:50:11.751Z,101070.09
2018-11-05T13:52:40.205Z,101072.44
2018-11-05T13:55:10.499Z,101065.31
2018-11-05T13:57:38.859Z,101060.67
2018-11-05T14:00:09.120Z,101060.37
2018-11-05T14:02:37.428Z,101060.25
2018-11-05T14:05:05.754Z,101062.97
2018-11-05T14:07:34.181Z,101059.61
2018-11-05T14:10:02.515Z,101052.23
2018-11-05T14:12:30.876Z,101050.27
2018-11-05T14:14:59.270Z,101048.14
2018-11-05T14:17:27.653Z,101039.55
2018-11-05T14:19:56.015Z,101042.19
2018-11-05T14:22:24.406Z,101042.78
2018-11-05T14:24:52.849Z,101050.48
2018-11-05T14:27:21.232Z,101047.20
2018-11-05T14:29:50.311Z,101037.75
2018-11-05T14:32:23.565Z,101035.41
2018-11-05T14:34:51.925Z,101037.40
2018-11-05T14:37:20.799Z,101033.55
2018-11-05T14:39:49.144Z,101026.67
2018-11-05T14:42:17.496Z,101024.53
2018-11-05T14:44:45.906Z,101027.05
2018-11-05T14:47:14.253Z,101037.52
2018-11-05T14:49:42.759Z,101030.33
2018-11-05T14:52:11.169Z,101043.84
2018-11-05T14:54:39.548Z,101048.48
2018-11-05T14:57:08.305Z,101036.72
2018-11-05T14:59:36.715Z,101037.23
2018-11-05T15:02:10.713Z,101037.37
2018-11-05T15:04:39.046Z,101036.17
2018-11-05T15:07:07.566Z,101041.97
2018-11-05T15:09:35.986Z,101048.58
2018-11-05T15:12:04.322Z,101045.34
2018-11-05T15:14:32.748Z,101053.64
2018-11-05T15:17:01.210Z,101035.58
2018-11-05T15:19:30.130Z,101042.05
2018-11-05T15:21:58.137Z,101026.34
2018-11-05T15:24:26.557Z,101008.73
2018-11-05T15:26:55.162Z,101013.82
2018-11-05T15:29:23.508Z,101024.72
2018-11-05T15:31:51.878Z,101025.02
2018-11-05T15:34:20.308Z,101015.77
2018-11-05T15:36:48.700Z,101026.63
2018-11-05T15:39:17.132Z,101012.20
2018-11-05T15:41:45.540Z,100999.52
2018-11-05T15:44:14.066Z,101006.92
2018-11-05T15:46:42.508Z,101014.98
2018-11-05T15:49:10.934Z,101005.22
2018-11-05T15:51:39.765Z,101001.75
2018-11-05T15:54:07.839Z,101002.36
2018-11-05T15:56:36.027Z,101008.67
2018-11-05T15:59:04.452Z,101017.91
2018-11-05T16:01:32.793Z,101018.81
2018-11-05T16:04:01.205Z,101015.57
2018-11-05T16:06:29.645Z,101012.93
2018-11-05T16:08:58.097Z,101001.77
2018-11-05T16:11:26.591Z,101006.24
2018-11-05T16:13:54.975Z,101021.45
2018-11-05T16:16:23.302Z,101013.95
2018-11-05T16:18:51.708Z,101012.52
2018-11-05T16:21:20.070Z,101013.66
2018-11-05T16:23:48.460Z,101014.03
2018-11-05T16:26:16.835Z,101016.15
2018-11-05T16:28:45.172Z,101015.55
2018-11-05T16:31:13.576Z,101012.83
2018-11-05T16:33:41.957Z,101009.78
2018-11-05T16:36:10.301Z,101000.53
2018-11-05T16:38:38.799Z,101004.13
2018-11-05T16:41:07.118Z,100999.00
2018-11-05T16:43:35.479Z,101000.31
2018-11-05T16:46:03.857Z,101006.02
2018-11-05T16:48:32.217Z,100996.66
2018-11-05T16:51:00.616Z,101002.27
2018-11-05T16:53:29.006Z,100992.59
2018-11-05T16:55:57.372Z,100992.69
2018-11-05T16:58:25.757Z,100990.25
2018-11-05T17:00:54.139Z,100998.03
2018-11-05T17:03:22.541Z,100994.16
2018-11-05T17:05:51.011Z,101000.00
2018-11-05T17:08:19.414Z,100996.25
2018-11-05T17:10:47.981Z,100999.06
2018-11-05T17:13:16.403Z,100984.83
2018-11-05T17:15:44.743Z,100990.11
2018-11-05T17:18:13.120Z,100994.64
2018-11-05T17:20:41.495Z,100990.97
2018-11-05T17:23:09.864Z,100975.42
2018-11-05T17:25:38.949Z,100978.14
2018-11-05T17:28:07.565Z,100989.14
2018-11-05T17:30:36.066Z,100987.90
2018-11-05T17:33:04.405Z,100996.55
2018-11-05T17:35:32.733Z,100993.91
2018-11-05T17:38:01.217Z,100984.02
2018-11-05T17:40:29.660Z,100985.05
2018-11-05T17:42:58.040Z,100977.62
2018-11-05T17:45:26.425Z,100984.83
2018-11-05T17:47:54.833Z,100982.02
2018-11-05T17:50:23.247Z,100971.38
2018-11-05T17:52:51.623Z,100987.09
2018-11-05T17:55:19.942Z,100983.05
2018-11-05T17:57:48.823Z,100982.32
2018-11-05T18:00:19.295Z,100972.86
2018-11-05T18:02:47.734Z,100975.84
2018-11-05T18:05:16.383Z,100970.36
2018-11-05T18:07:44.988Z,100962.31
2018-11-05T18:10:13.417Z,100967.30
2018-11-05T18:12:41.897Z,100948.70
2018-11-05T18:15:11.395Z,100953.07
2018-11-05T18:17:40.714Z,100952.48
2018-11-05T18:20:10.578Z,100950.86
2018-11-05T18:22:38.981Z,100939.57
2018-11-05T18:25:09.461Z,100936.34
2018-11-05T18:27:37.940Z,100940.30
2018-11-05T18:30:06.831Z,100934.12
2018-11-05T18:32:36.276Z,100930.78
2018-11-05T18:35:04.641Z,100924.17
2018-11-05T18:37:33.000Z,100918.89
2018-11-05T18:40:01.388Z,100906.94
2018-11-05T18:42:29.833Z,100914.27
2018-11-05T18:44:58.316Z,100913.08
2018-11-05T18:47:26.729Z,100912.23
2018-11-05T18:49:55.118Z,100902.05
2018-11-05T18:52:23.615Z,100911.03
2018-11-05T18:54:52.024Z,100901.66
2018-11-05T18:57:20.350Z,100904.61
2018-11-05T18:59:48.733Z,100911.86
2018-11-05T19:02:22.466Z,100902.16
2018-11-05T19:04:50.838Z,100902.03
2018-11-05T19:07:19.166Z,100907.58
2018-11-05T19:09:47.595Z,100903.61
2018-11-05T19:12:15.940Z,100897.52
2018-11-05T19:14:44.265Z,100890.73
2018-11-05T19:17:12.645Z,100887.63
2018-11-05T19:19:40.974Z,100883.38
2018-11-05T19:22:09.495Z,100880.57
2018-11-05T19:24:37.835Z,100888.20
2018-11-05T19:27:06.663Z,100883.66
2018-11-05T19:29:35.022Z,100876.59
2018-11-05T19:32:03.402Z,100871.91
2018-11-05T19:34:31.812Z,100874.77
2018-11-05T19:37:00.189Z,100872.44
2018-11-05T19:39:28.645Z,100863.97
2018-11-05T19:41:57.037Z,100855.61
2018-11-05T19:44:25.479Z,100850.70
2018-11-05T19:46:53.845Z,100848.22
2018-11-05T19:49:22.209Z,100854.65
2018-11-05T19:51:50.524Z,100856.78
2018-11-05T19:54:18.908Z,100860.52
2018-11-05T19:56:47.603Z,100864.34
2018-11-05T19:59:16.061Z,100858.02
2018-11-05T20:01:44.428Z,100859.63
2018-11-05T20:04:12.787Z,100862.27
2018-11-05T20:06:41.273Z,100855.88
2018-11-05T20:09:09.733Z,100854.48
2018-11-05T20:11:38.430Z,100860.09
2018-11-05T20:14:06.923Z,100858.27
2018-11-05T20:16:35.605Z,100856.27
2018-11-05T20:19:04.167Z,100856.44
2018-11-05T20:21:32.454Z,100860.31
2018-11-05T20:24:00.881Z,100855.12
2018-11-05T20:26:29.396Z,100852.91
2018-11-05T20:28:58.029Z,100852.98
2018-11-05T20:31:26.746Z,100855.62
2018-11-05T20:33:55.331Z,100862.01
2018-11-05T20:36:23.668Z,100865.97
2018-11-05T20:38:52.352Z,100866.86
2018-11-05T20:41:20.786Z,100873.97
2018-11-05T20:43:49.200Z,100861.88
2018-11-05T20:46:17.625Z,100868.30
2018-11-05T20:48:46.254Z,100867.87
2018-11-05T20:51:14.766Z,100864.42
2018-11-05T20:53:43.302Z,100870.72
2018-11-05T20:56:11.697Z,100865.44
2018-11-05T20:58:40.383Z,100868.08
2018-11-05T21:01:08.970Z,100867.14
2018-11-05T21:03:37.366Z,100855.27
2018-11-05T21:06:05.838Z,100857.53
2018-11-05T21:08:34.637Z,100850.63
2018-11-05T21:11:03.162Z,100861.28
2018-11-05T21:13:31.860Z,100858.18
2018-11-05T21:16:00.371Z,100854.66
2018-11-05T21:18:28.747Z,100857.64
2018-11-05T21:20:57.399Z,100852.27
2018-11-05T21:23:25.980Z,100841.64
2018-11-05T21:25:54.356Z,100833.44
2018-11-05T21:28:22.728Z,100827.06
2018-11-05T21:30:51.131Z,100824.46
2018-11-05T21:33:19.521Z,100823.18
2018-11-05T21:35:47.939Z,100831.38
2018-11-05T21:38:16.341Z,100829.56
2018-11-05T21:40:44.736Z,100833.81
2018-11-05T21:43:13.147Z,100827.52
2018-11-05T21:45:41.685Z,100825.70
2018-11-05T21:48:10.051Z,100825.31
2018-11-05T21:50:38.424Z,100826.11
2018-11-05T21:53:06.775Z,100827.22
2018-11-05T21:55:35.151Z,100820.76
2018-11-05T21:58:03.542Z,100811.53
2018-11-05T22:00:31.999Z,100810.45
2018-11-05T22:03:01.743Z,100804.80
2018-11-05T22:05:30.106Z,100797.50
2018-11-05T22:07:58.522Z,100798.21
2018-11-05T22:10:26.914Z,100798.00
2018-11-05T22:12:55.324Z,100800.04
2018-11-05T22:15:24.808Z,100796.98
2018-11-05T22:17:53.284Z,100792.94
2018-11-05T22:20:21.646Z,100794.14
2018-11-05T22:22:50.196Z,100794.14
2018-11-05T22:25:18.531Z,100796.17
2018-11-05T22:27:46.917Z,100788.98
2018-11-05T22:30:15.387Z,100790.61
2018-11-05T22:32:43.793Z,100788.27
2018-11-05T22:35:12.006Z,100791.30
2018-11-05T22:37:40.458Z,100785.22
2018-11-05T22:40:11.100Z,100778.23
2018-11-05T22:42:39.413Z,100782.06
2018-11-05T22:45:08.407Z,100789.67
2018-11-05T22:47:36.938Z,100787.34
2018-11-05T22:50:05.587Z,100789.08
2018-11-05T22:52:33.902Z,100784.16
2018-11-05T22:55:02.237Z,100780.06
2018-11-05T22:57:30.679Z,100777.64
2018-11-05T22:59:59.001Z,100774.50
2018-11-05T23:02:27.355Z,100762.31
2018-11-05T23:04:55.689Z,100768.89
2018-11-05T23:07:24.107Z,100764.47
2018-11-05T23:09:52.473Z,100764.47
2018-11-05T23:12:20.851Z,100765.19
2018-11-05T23:14:49.217Z,100765.28
2018-11-05T23:17:17.568Z,100776.03
2018-11-05T23:19:45.959Z,100777.73
2018-11-05T23:22:14.378Z,100773.78
2018-11-05T23:24:42.855Z,100774.08
2018-11-05T23:27:11.183Z,100781.54
2018-11-05T23:29:39.533Z,100775.13
2018-11-05T23:32:07.855Z,100778.27
2018-11-05T23:34:36.255Z,100781.00
2018-11-05T23:37:04.660Z,100779.47
2018-11-05T23:39:33.006Z,100775.22
2018-11-05T23:42:01.340Z,100772.16
2018-11-05T23:44:29.684Z,100771.53
2018-11-05T23:46:58.081Z,100766.89
2018-11-05T23:49:26.438Z,100766.92
2018-11-05T23:51:54.922Z,100761.95
2018-11-05T23:54:23.173Z,100759.53
2018-11-05T23:56:51.537Z,100765.91
2018-11-05T23:59:19.974Z,100760.73
